createdAt,value
2022-09-27T00:00:42.362Z,72.99
2022-09-27T00:03:13.214Z,73.14
2022-09-27T00:05:41.763Z,72.82
2022-09-27T00:08:09.460Z,72.75
2022-09-27T00:10:36.568Z,72.62
2022-09-27T00:13:03.720Z,72.73
2022-09-27T00:15:30.960Z,72.00
2022-09-27T00:17:58.060Z,72.33
2022-09-27T00:20:25.780Z,71.69
2022-09-27T00:22:52.860Z,71.69
2022-09-27T00:25:20.062Z,71.23
2022-09-27T00:27:47.172Z,71.91
2022-09-27T00:30:14.387Z,71.97
2022-09-27T00:32:41.539Z,72.50
2022-09-27T00:35:09.001Z,72.97
2022-09-27T00:37:36.080Z,73.13
2022-09-27T00:40:03.420Z,73.48
2022-09-27T00:42:30.441Z,73.60
2022-09-27T00:45:04.952Z,73.28
2022-09-27T00:48:05.761Z,73.75
2022-09-27T00:50:43.381Z,73.32
2022-09-27T00:53:24.201Z,73.39
2022-09-27T00:55:57.280Z,73.43
2022-09-27T00:58:30.521Z,73.38
2022-09-27T01:01:02.842Z,73.49
2022-09-27T01:04:02.558Z,74.04
2022-09-27T01:06:29.981Z,73.28
2022-09-27T01:08:57.041Z,73.77
2022-09-27T01:11:40.121Z,73.83
2022-09-27T01:14:49.417Z,73.90
2022-09-27T01:17:42.480Z,74.10
2022-09-27T01:20:41.320Z,74.02
2022-09-27T01:23:42.508Z,73.59
2022-09-27T01:26:09.871Z,74.02
2022-09-27T01:28:58.900Z,73.84
2022-09-27T01:31:35.240Z,73.94
2022-09-27T01:34:07.780Z,73.62
2022-09-27T01:36:57.941Z,73.77
2022-09-27T01:39:53.464Z,73.77
2022-09-27T01:42:46.080Z,74.00
2022-09-27T01:45:17.842Z,74.03
2022-09-27T01:48:12.441Z,73.78
2022-09-27T01:50:57.781Z,73.60
2022-09-27T01:53:36.949Z,73.96
2022-09-27T01:56:46.629Z,73.75
2022-09-27T01:59:21.288Z,73.41
2022-09-27T02:02:03.083Z,73.33
2022-09-27T02:04:45.320Z,73.27
2022-09-27T02:07:51.980Z,73.42
2022-09-27T02:10:23.487Z,73.51
2022-09-27T02:13:13.740Z,73.54
2022-09-27T02:16:04.998Z,73.08
2022-09-27T02:18:53.100Z,73.23
2022-09-27T02:21:21.481Z,73.04
2022-09-27T02:23:55.241Z,73.04
2022-09-27T02:26:38.241Z,72.92
2022-09-27T02:29:43.669Z,73.02
2022-09-27T02:32:11.006Z,73.03
2022-09-27T02:34:41.261Z,73.07
2022-09-27T02:37:08.856Z,72.93
2022-09-27T02:39:36.040Z,72.50
2022-09-27T02:42:07.421Z,72.60
2022-09-27T02:44:36.081Z,72.50
2022-09-27T02:47:03.340Z,72.91
2022-09-27T02:49:44.020Z,73.35
2022-09-27T02:52:31.521Z,74.03
2022-09-27T02:55:17.408Z,73.64
2022-09-27T02:58:14.040Z,74.34
2022-09-27T03:01:18.178Z,73.84
2022-09-27T03:04:28.191Z,73.80
2022-09-27T03:06:57.161Z,74.07
2022-09-27T03:09:41.001Z,73.67
2022-09-27T03:12:08.048Z,73.94
2022-09-27T03:14:35.141Z,73.91
2022-09-27T03:17:15.760Z,73.11
2022-09-27T03:20:07.169Z,73.29
2022-09-27T03:22:48.002Z,73.54
2022-09-27T03:25:15.363Z,73.88
2022-09-27T03:27:44.501Z,73.83
2022-09-27T03:30:14.347Z,73.80
2022-09-27T03:32:45.360Z,74.44
2022-09-27T03:35:39.122Z,73.90
2022-09-27T03:38:07.621Z,74.17
2022-09-27T03:40:34.874Z,74.13
2022-09-27T03:43:12.340Z,74.31
2022-09-27T03:45:39.400Z,74.64
2022-09-27T03:48:09.840Z,74.74
2022-09-27T03:50:37.540Z,74.77
2022-09-27T03:53:04.783Z,74.37
2022-09-27T03:55:32.145Z,74.26
2022-09-27T03:57:59.220Z,73.91
2022-09-27T04:00:26.320Z,73.78
2022-09-27T04:02:53.488Z,74.11
2022-09-27T04:05:24.502Z,74.49
2022-09-27T04:07:56.442Z,74.62
2022-09-27T04:10:24.120Z,74.77
2022-09-27T04:12:51.681Z,74.95
2022-09-27T04:15:21.461Z,74.57
2022-09-27T04:17:51.609Z,74.85
2022-09-27T04:20:39.008Z,74.07
2022-09-27T04:23:12.400Z,74.36
2022-09-27T04:25:44.561Z,74.53
2022-09-27T04:28:54.469Z,74.33
2022-09-27T04:31:22.123Z,74.43
2022-09-27T04:33:55.342Z,74.40
2022-09-27T04:36:26.923Z,73.93
2022-09-27T04:39:08.395Z,73.60
2022-09-27T04:41:38.354Z,73.31
2022-09-27T04:44:06.766Z,73.69
2022-09-27T04:46:34.893Z,73.63
2022-09-27T04:49:02.673Z,73.65
2022-09-27T04:51:31.723Z,73.92
2022-09-27T04:53:58.843Z,74.25
2022-09-27T04:56:29.665Z,74.14
2022-09-27T04:58:56.726Z,74.20
2022-09-27T05:01:23.811Z,73.42
2022-09-27T05:04:08.965Z,73.72
2022-09-27T05:06:39.392Z,73.54
2022-09-27T05:09:16.093Z,73.93
2022-09-27T05:12:07.727Z,74.19
2022-09-27T05:14:47.425Z,74.23
2022-09-27T05:17:18.953Z,74.72
2022-09-27T05:19:46.173Z,75.36
2022-09-27T05:22:27.683Z,75.36
2022-09-27T05:24:54.944Z,75.01
2022-09-27T05:27:21.944Z,74.64
2022-09-27T05:29:49.104Z,74.44
2022-09-27T05:32:26.038Z,74.68
2022-09-27T05:35:13.144Z,74.12
2022-09-27T05:37:40.863Z,74.38
2022-09-27T05:40:22.455Z,74.57
2022-09-27T05:42:50.665Z,74.71
2022-09-27T05:45:18.563Z,74.94
2022-09-27T05:48:00.885Z,75.13
2022-09-27T05:50:28.483Z,75.13
2022-09-27T05:52:55.647Z,75.34
2022-09-27T05:55:24.065Z,74.81
2022-09-27T05:58:04.646Z,74.66
2022-09-27T06:00:46.645Z,74.34
2022-09-27T06:03:47.405Z,74.32
2022-09-27T06:06:40.573Z,74.35
2022-09-27T06:09:13.326Z,74.01
2022-09-27T06:11:43.126Z,74.34
2022-09-27T06:14:14.673Z,73.98
2022-09-27T06:16:56.953Z,74.44
2022-09-27T06:19:27.673Z,74.69
2022-09-27T06:21:55.784Z,74.92
2022-09-27T06:24:27.554Z,74.84
2022-09-27T06:26:54.863Z,74.79
2022-09-27T06:29:42.184Z,74.77
2022-09-27T06:32:22.303Z,74.63
2022-09-27T06:35:14.047Z,75.00
2022-09-27T06:37:41.173Z,74.50
2022-09-27T06:40:09.354Z,74.97
2022-09-27T06:42:55.153Z,75.53
2022-09-27T06:45:43.000Z,75.32
2022-09-27T06:48:29.434Z,74.63
2022-09-27T06:51:11.063Z,75.08
2022-09-27T06:53:38.194Z,74.97
2022-09-27T06:56:05.311Z,74.71
2022-09-27T06:59:02.534Z,74.54
2022-09-27T07:01:55.963Z,74.93
2022-09-27T07:04:59.203Z,74.14
2022-09-27T07:07:39.064Z,73.94
2022-09-27T07:10:09.882Z,74.23
2022-09-27T07:12:37.993Z,73.83
2022-09-27T07:15:06.564Z,74.29
2022-09-27T07:17:33.652Z,73.86
2022-09-27T07:20:01.257Z,74.23
2022-09-27T07:22:30.144Z,74.39
2022-09-27T07:25:01.721Z,74.24
2022-09-27T07:27:29.062Z,74.16
2022-09-27T07:29:56.004Z,73.81
2022-09-27T07:32:24.841Z,74.06
2022-09-27T07:34:53.193Z,73.80
2022-09-27T07:37:21.461Z,73.77
2022-09-27T07:39:49.102Z,73.30
2022-09-27T07:42:16.144Z,73.49
2022-09-27T07:44:46.482Z,73.42
2022-09-27T07:47:42.323Z,72.87
2022-09-27T07:50:21.436Z,72.33
2022-09-27T07:53:05.053Z,71.66
2022-09-27T07:55:55.143Z,71.78
2022-09-27T07:58:28.397Z,72.00
2022-09-27T08:01:00.896Z,71.72
2022-09-27T08:03:28.694Z,71.43
2022-09-27T08:05:55.703Z,71.05
2022-09-27T08:08:22.854Z,71.10
2022-09-27T08:10:51.133Z,71.80
2022-09-27T08:13:20.652Z,71.60
2022-09-27T08:15:52.745Z,71.41
2022-09-27T08:18:22.287Z,72.29
2022-09-27T08:21:01.193Z,71.83
2022-09-27T08:23:57.453Z,72.13
2022-09-27T08:26:33.024Z,72.65
2022-09-27T08:29:13.457Z,72.33
2022-09-27T08:31:51.468Z,71.48
2022-09-27T08:34:20.604Z,71.60
2022-09-27T08:36:47.894Z,71.02
2022-09-27T08:39:15.668Z,70.15
2022-09-27T08:42:03.053Z,70.20
2022-09-27T08:44:51.163Z,69.64
2022-09-27T08:47:25.674Z,68.80
2022-09-27T08:50:02.786Z,68.38
2022-09-27T08:52:35.703Z,67.40
2022-09-27T08:55:22.473Z,67.20
2022-09-27T08:57:55.787Z,66.93
2022-09-27T09:00:24.505Z,67.10
2022-09-27T09:02:51.994Z,67.31
2022-09-27T09:05:30.315Z,67.12
2022-09-27T09:08:03.343Z,66.73
2022-09-27T09:11:13.933Z,66.41
2022-09-27T09:13:53.747Z,66.84
2022-09-27T09:16:39.142Z,66.35
2022-09-27T09:19:47.654Z,67.01
2022-09-27T09:23:08.732Z,66.39
2022-09-27T09:25:55.293Z,65.89
2022-09-27T09:28:44.964Z,65.76
2022-09-27T09:31:39.489Z,65.04
2022-09-27T09:34:20.833Z,64.46
2022-09-27T09:37:04.363Z,64.10
2022-09-27T09:39:39.814Z,63.85
2022-09-27T09:42:13.265Z,62.63
2022-09-27T09:44:47.114Z,62.27
2022-09-27T09:47:44.023Z,62.91
2022-09-27T09:50:19.404Z,63.70
2022-09-27T09:52:54.593Z,63.57
2022-09-27T09:55:28.834Z,63.00
2022-09-27T09:58:21.644Z,63.26
2022-09-27T10:00:57.286Z,62.77
2022-09-27T10:03:24.753Z,62.94
2022-09-27T10:05:52.283Z,61.37
2022-09-27T10:08:23.086Z,61.86
2022-09-27T10:11:01.143Z,63.04
2022-09-27T10:13:56.707Z,60.06
2022-09-27T10:16:26.500Z,56.67
2022-09-27T10:19:00.426Z,56.30
2022-09-27T10:21:30.687Z,56.30
2022-09-27T10:24:17.656Z,57.15
2022-09-27T10:27:06.805Z,58.17
2022-09-27T10:29:39.426Z,58.33
2022-09-27T10:32:37.389Z,59.05
2022-09-27T10:35:37.105Z,59.32
2022-09-27T10:38:32.202Z,60.25
2022-09-27T10:41:38.443Z,60.42
2022-09-27T10:44:32.843Z,61.28
2022-09-27T10:47:26.596Z,61.96
2022-09-27T10:50:08.126Z,63.18
2022-09-27T10:53:05.001Z,63.72
2022-09-27T10:55:37.322Z,64.22
2022-09-27T10:58:04.875Z,63.88
2022-09-27T11:00:37.121Z,64.33
2022-09-27T11:13:33.043Z,67.75
2022-09-27T11:16:35.146Z,69.26
2022-09-27T11:19:51.593Z,68.73
2022-09-27T11:22:48.633Z,69.23
2022-09-27T11:25:44.146Z,68.40
2022-09-27T11:28:38.393Z,68.42
2022-09-27T11:31:26.845Z,67.38
2022-09-27T11:34:30.284Z,66.70
2022-09-27T11:37:04.344Z,66.45
2022-09-27T11:39:38.811Z,66.98
2022-09-27T11:42:45.263Z,66.31
2022-09-27T11:46:03.226Z,65.16
2022-09-27T11:48:44.294Z,64.90
2022-09-27T11:51:35.899Z,64.55
2022-09-27T11:54:14.678Z,62.29
2022-09-27T11:57:21.894Z,63.04
2022-09-27T11:59:51.995Z,63.23
2022-09-27T12:02:26.066Z,63.20
2022-09-27T12:05:08.523Z,63.31
2022-09-27T12:08:26.273Z,63.21
2022-09-27T12:11:22.785Z,62.74
2022-09-27T12:14:00.423Z,63.23
2022-09-27T12:16:28.990Z,63.02
2022-09-27T12:18:58.757Z,63.14
2022-09-27T12:21:42.694Z,63.09
2022-09-27T12:24:19.563Z,63.23
2022-09-27T12:27:04.002Z,62.84
2022-09-27T12:29:39.591Z,63.09
2022-09-27T12:32:44.641Z,63.32
2022-09-27T12:35:50.244Z,63.98
2022-09-27T12:38:32.413Z,62.84
2022-09-27T12:41:01.823Z,63.11
2022-09-27T12:43:48.784Z,62.97
2022-09-27T12:46:38.569Z,62.56
2022-09-27T12:49:17.834Z,63.08
2022-09-27T12:52:13.293Z,62.60
2022-09-27T12:55:12.523Z,62.03
2022-09-27T12:57:47.505Z,61.46
2022-09-27T13:00:25.423Z,60.67
2022-09-27T13:03:30.224Z,61.59
2022-09-27T13:06:16.453Z,62.08
2022-09-27T13:09:15.837Z,62.77
2022-09-27T13:11:55.454Z,63.14
2022-09-27T13:14:26.183Z,63.27
2022-09-27T13:16:53.413Z,62.79
2022-09-27T13:19:44.523Z,63.54
2022-09-27T13:22:38.213Z,63.36
2022-09-27T13:25:56.775Z,63.98
2022-09-27T13:28:51.973Z,64.20
2022-09-27T13:31:57.984Z,63.98
2022-09-27T13:35:21.085Z,63.97
2022-09-27T13:38:01.144Z,64.40
2022-09-27T13:40:36.956Z,64.31
2022-09-27T13:43:42.078Z,64.12
2022-09-27T13:46:35.675Z,63.79
2022-09-27T13:49:12.424Z,63.63
2022-09-27T13:52:03.944Z,63.35
2022-09-27T13:54:34.074Z,63.44
2022-09-27T13:57:06.774Z,63.61
2022-09-27T13:59:57.865Z,63.83
2022-09-27T14:03:25.393Z,63.57
2022-09-27T14:06:17.605Z,63.42
2022-09-27T14:09:15.236Z,63.09
2022-09-27T14:11:48.964Z,62.57
2022-09-27T14:14:21.723Z,62.66
2022-09-27T14:16:54.634Z,62.86
2022-09-27T14:19:25.955Z,62.24
2022-09-27T14:22:13.724Z,61.30
2022-09-27T14:25:04.259Z,60.63
2022-09-27T14:27:40.223Z,60.23
2022-09-27T14:30:30.176Z,61.35
2022-09-27T14:33:34.824Z,61.78
2022-09-27T14:36:45.250Z,61.91
2022-09-27T14:39:15.574Z,60.97
2022-09-27T14:41:44.963Z,61.66
2022-09-27T14:44:18.844Z,61.67
2022-09-27T14:46:46.591Z,61.61
2022-09-27T14:49:20.356Z,62.19
2022-09-27T14:51:56.305Z,62.20
2022-09-27T14:54:27.034Z,62.44
2022-09-27T14:56:56.365Z,62.62
2022-09-27T14:59:34.853Z,62.89
2022-09-27T15:02:15.394Z,63.82
2022-09-27T15:04:47.049Z,64.54
2022-09-27T15:07:17.220Z,65.35
2022-09-27T15:09:45.783Z,64.88
2022-09-27T15:12:25.124Z,64.96
2022-09-27T15:14:54.713Z,65.32
2022-09-27T15:17:22.653Z,66.28
2022-09-27T15:20:22.373Z,66.33
2022-09-27T15:22:49.396Z,66.29
2022-09-27T15:25:25.204Z,67.27
2022-09-27T15:27:54.985Z,67.15
2022-09-27T15:30:30.096Z,67.26
2022-09-27T15:32:57.918Z,67.16
2022-09-27T15:35:33.833Z,66.98
2022-09-27T15:38:47.632Z,67.01
2022-09-27T15:41:20.510Z,67.26
2022-09-27T15:43:49.935Z,67.13
2022-09-27T15:46:23.049Z,67.62
2022-09-27T15:49:18.097Z,67.60
2022-09-27T15:51:47.387Z,67.60
2022-09-27T15:54:17.460Z,67.34
2022-09-27T15:56:44.674Z,67.36
2022-09-27T15:59:20.891Z,67.20
2022-09-27T16:01:48.646Z,67.66
2022-09-27T16:04:15.573Z,67.33
2022-09-27T16:06:44.275Z,67.28
2022-09-27T16:09:17.933Z,67.23
2022-09-27T16:11:46.963Z,67.41
2022-09-27T16:14:16.955Z,67.14
2022-09-27T16:16:50.765Z,67.27
2022-09-27T16:19:17.993Z,67.25
2022-09-27T16:21:46.004Z,67.13
2022-09-27T16:24:13.194Z,67.25
2022-09-27T16:26:40.177Z,67.33
2022-09-27T16:29:12.584Z,67.20
2022-09-27T16:31:41.395Z,67.27
2022-09-27T16:34:12.655Z,67.47
2022-09-27T16:36:40.903Z,67.42
2022-09-27T16:39:13.013Z,67.68
2022-09-27T16:41:43.893Z,67.74
2022-09-27T16:44:14.306Z,67.82
2022-09-27T16:46:42.139Z,67.58
2022-09-27T16:49:31.823Z,67.98
2022-09-27T16:52:02.304Z,67.88
2022-09-27T16:54:30.045Z,68.31
2022-09-27T16:56:58.511Z,68.28
2022-09-27T16:59:25.982Z,68.22
2022-09-27T17:01:58.329Z,68.32
2022-09-27T17:04:27.810Z,68.51
2022-09-27T17:06:55.847Z,68.28
2022-09-27T17:09:22.883Z,68.85
2022-09-27T17:11:50.605Z,68.87
2022-09-27T17:14:17.897Z,69.36
2022-09-27T17:16:45.999Z,69.22
2022-09-27T17:19:18.576Z,68.96
2022-09-27T17:21:46.333Z,69.25
2022-09-27T17:24:13.636Z,69.21
2022-09-27T17:26:41.175Z,69.32
2022-09-27T17:29:09.740Z,69.49
2022-09-27T17:31:38.546Z,69.77
2022-09-27T17:34:06.193Z,69.49
2022-09-27T17:36:35.723Z,69.82
2022-09-27T17:39:03.498Z,69.57
2022-09-27T17:41:30.853Z,69.22
2022-09-27T17:44:01.894Z,67.84
2022-09-27T17:46:34.345Z,66.99
2022-09-27T17:49:20.792Z,66.36
2022-09-27T17:51:49.916Z,65.42
2022-09-27T17:54:19.888Z,65.15
2022-09-27T17:56:47.863Z,64.79
2022-09-27T17:59:16.313Z,64.32
2022-09-27T18:01:45.302Z,64.42
2022-09-27T18:04:16.516Z,63.83
2022-09-27T18:06:46.575Z,63.55
2022-09-27T18:09:16.320Z,63.51
2022-09-27T18:11:44.384Z,63.38
2022-09-27T18:14:12.518Z,63.33
2022-09-27T18:16:44.433Z,63.02
2022-09-27T18:19:15.465Z,63.09
2022-09-27T18:21:43.265Z,62.72
2022-09-27T18:24:11.064Z,62.73
2022-09-27T18:26:39.084Z,62.94
2022-09-27T18:29:21.813Z,62.59
2022-09-27T18:31:49.523Z,62.70
2022-09-27T18:34:18.360Z,62.78
2022-09-27T18:36:45.984Z,61.99
2022-09-27T18:39:18.336Z,62.45
2022-09-27T18:41:47.921Z,62.34
2022-09-27T18:44:15.465Z,62.61
2022-09-27T18:46:42.890Z,62.14
2022-09-27T18:49:12.574Z,62.55
2022-09-27T18:51:44.965Z,62.66
2022-09-27T18:54:18.894Z,63.24
2022-09-27T18:56:47.957Z,62.96
2022-09-27T18:59:16.753Z,62.64
2022-09-27T19:01:47.830Z,62.55
2022-09-27T19:04:25.072Z,62.52
2022-09-27T19:06:53.653Z,63.09
2022-09-27T19:09:20.978Z,62.73
2022-09-27T19:11:48.340Z,62.40
2022-09-27T19:14:20.533Z,61.68
2022-09-27T19:16:48.346Z,61.09
2022-09-27T19:19:20.265Z,60.15
2022-09-27T19:21:48.197Z,60.37
2022-09-27T19:24:16.073Z,60.34
2022-09-27T19:26:43.471Z,60.33
2022-09-27T19:29:10.988Z,59.97
2022-09-27T19:31:38.046Z,60.25
2022-09-27T19:34:05.174Z,60.31
2022-09-27T19:36:32.185Z,60.26
2022-09-27T19:39:00.251Z,60.82
2022-09-27T19:41:27.601Z,60.19
2022-09-27T19:43:55.869Z,60.06
2022-09-27T19:46:25.009Z,59.99
2022-09-27T19:48:52.627Z,59.79
2022-09-27T19:51:22.214Z,59.80
2022-09-27T19:53:49.944Z,59.97
2022-09-27T19:56:17.496Z,59.92
2022-09-27T19:58:44.747Z,60.08
2022-09-27T20:01:16.324Z,60.06
2022-09-27T20:03:44.549Z,60.11
2022-09-27T20:06:12.766Z,60.08
2022-09-27T20:08:39.634Z,60.47
2022-09-27T20:11:09.314Z,60.64
2022-09-27T20:13:37.926Z,60.84
2022-09-27T20:16:06.359Z,60.93
2022-09-27T20:18:33.456Z,61.01
2022-09-27T20:21:04.357Z,61.51
2022-09-27T20:23:32.723Z,61.10
2022-09-27T20:26:00.233Z,60.59
2022-09-27T20:28:28.003Z,60.42
2022-09-27T20:31:03.003Z,60.02
2022-09-27T20:33:49.803Z,59.88
2022-09-27T20:36:31.951Z,60.21
2022-09-27T20:39:04.047Z,60.38
2022-09-27T20:41:42.942Z,60.28
2022-09-27T20:44:15.763Z,59.62
2022-09-27T20:46:46.685Z,59.45
2022-09-27T20:49:17.676Z,59.43
2022-09-27T20:51:48.773Z,59.40
2022-09-27T20:54:15.753Z,59.67
2022-09-27T20:56:46.315Z,60.13
2022-09-27T20:59:21.936Z,59.90
2022-09-27T21:01:51.542Z,59.73
2022-09-27T21:04:19.714Z,59.88
2022-09-27T21:06:46.572Z,59.13
2022-09-27T21:09:18.986Z,59.63
2022-09-27T21:11:47.834Z,59.69
2022-09-27T21:14:14.921Z,59.82
2022-09-27T21:16:42.125Z,59.95
2022-09-27T21:19:10.000Z,60.04
2022-09-27T21:21:37.180Z,60.67
2022-09-27T21:24:04.293Z,60.99
2022-09-27T21:26:32.937Z,61.38
2022-09-27T21:29:01.815Z,62.63
2022-09-27T21:31:33.150Z,63.37
2022-09-27T21:34:03.637Z,63.26
2022-09-27T21:36:35.233Z,63.09
2022-09-27T21:39:03.723Z,62.81
2022-09-27T21:41:30.696Z,62.97
2022-09-27T21:43:57.807Z,63.71
2022-09-27T21:46:26.749Z,63.49
2022-09-27T21:48:57.017Z,63.31
2022-09-27T21:51:25.653Z,64.34
2022-09-27T21:54:01.355Z,64.78
2022-09-27T21:56:33.765Z,64.10
2022-09-27T21:59:00.874Z,64.48
2022-09-27T22:01:30.136Z,64.68
2022-09-27T22:03:58.097Z,64.69
2022-09-27T22:06:30.103Z,64.92
2022-09-27T22:08:59.785Z,65.13
2022-09-27T22:11:29.523Z,64.75
2022-09-27T22:13:57.413Z,64.70
2022-09-27T22:16:26.197Z,65.01
2022-09-27T22:18:55.395Z,64.44
2022-09-27T22:21:25.144Z,64.44
2022-09-27T22:23:55.776Z,63.99
2022-09-27T22:26:29.826Z,64.11
2022-09-27T22:28:57.134Z,63.56
2022-09-27T22:31:24.311Z,62.46
2022-09-27T22:33:52.294Z,63.27
2022-09-27T22:36:19.284Z,63.00
2022-09-27T22:38:46.474Z,63.20
2022-09-27T22:41:13.895Z,62.97
2022-09-27T22:43:40.894Z,63.07
2022-09-27T22:46:08.613Z,62.98
2022-09-27T22:48:36.953Z,62.97
2022-09-27T22:51:04.323Z,63.37
2022-09-27T22:53:32.406Z,63.75
2022-09-27T22:56:04.294Z,63.94
2022-09-27T22:58:32.264Z,63.92
2022-09-27T23:01:00.394Z,63.71
2022-09-27T23:03:27.398Z,63.63
2022-09-27T23:05:54.353Z,63.94
2022-09-27T23:08:21.828Z,63.85
2022-09-27T23:10:48.714Z,63.76
2022-09-27T23:13:15.635Z,63.96
2022-09-27T23:15:42.553Z,63.65
2022-09-27T23:18:10.283Z,63.33
2022-09-27T23:20:37.344Z,63.53
2022-09-27T23:23:04.393Z,63.85
2022-09-27T23:25:31.253Z,63.94
2022-09-27T23:27:58.454Z,63.68
2022-09-27T23:30:25.953Z,64.14
2022-09-27T23:32:54.543Z,64.62
2022-09-27T23:35:22.545Z,64.52
2022-09-27T23:37:52.773Z,64.34
2022-09-27T23:40:19.709Z,64.19
2022-09-27T23:42:46.783Z,64.28
2022-09-27T23:45:16.105Z,64.11
2022-09-27T23:47:43.163Z,64.30
2022-09-27T23:50:10.473Z,64.46
2022-09-27T23:52:37.433Z,64.44
2022-09-27T23:55:04.683Z,63.87
2022-09-27T23:57:31.813Z,63.82
2022-09-27T23:59:58.663Z,63.85
